Time;durP1;ratioP1;P1;durP2;ratioP2;P2;SDS_P1;SDS_P2;PMS_P1;PMS_P2;Temp;Humidity;BMP_temperature;BMP_pressure;BME280_temperature;BME280_humidity;BME280_pressure;Samples;Min_cycle;Max_cycle;Signal;HPM_P1;HPM_P2
2022/09/13 00:01:33;;;;;;;;;;;17.80;99.90;;;;;;4968154;28;20616;-77
2022/09/13 00:03:59;;;;;;;;;;;17.80;99.90;;;;;;4986609;28;19990;-77
2022/09/13 00:06:25;;;;;;;;;;;17.80;99.90;;;;;;4953177;28;20313;-79
2022/09/13 00:08:53;;;;;;;;;;;17.70;99.90;;;;;;4976762;28;19925;-77
2022/09/13 00:11:20;;;;;;;;;;;17.80;99.90;;;;;;4971001;28;20313;-77
2022/09/13 00:13:46;;;;;;;;;;;17.80;99.90;;;;;;5003549;28;20432;-77
2022/09/13 00:16:12;;;;;;;;;;;17.70;99.90;;;;;;4987012;28;19933;-77
2022/09/13 00:18:38;;;;;;;;;;;17.80;99.90;;;;;;4984254;28;19983;-77
2022/09/13 00:21:12;;;;;;;;;;;17.80;99.90;;;;;;4985585;28;19933;-77
2022/09/13 00:23:38;;;;;;;;;;;17.70;99.90;;;;;;5001147;28;20020;-78
2022/09/13 00:26:05;;;;;;;;;;;17.70;99.90;;;;;;4970967;28;20163;-78
2022/09/13 00:28:31;;;;;;;;;;;17.70;99.90;;;;;;4985980;28;19926;-77
2022/09/13 00:31:00;;;;;;;;;;;17.70;99.90;;;;;;4971648;28;19934;-77
2022/09/13 00:33:26;;;;;;;;;;;17.70;99.90;;;;;;5005726;28;19929;-77
2022/09/13 00:35:52;;;;;;;;;;;17.70;99.90;;;;;;4993587;28;20715;-77
2022/09/13 00:38:18;;;;;;;;;;;17.70;99.90;;;;;;4990322;28;19921;-79
2022/09/13 00:40:44;;;;;;;;;;;17.70;99.90;;;;;;4974248;28;19930;-78
2022/09/13 00:43:33;;;;;;;;;;;17.70;99.90;;;;;;5007344;28;19925;-77
2022/09/13 00:45:59;;;;;;;;;;;17.70;99.90;;;;;;5005168;28;19929;-77
2022/09/13 00:48:24;;;;;;;;;;;17.70;99.90;;;;;;5005807;28;19929;-78
2022/09/13 00:50:52;;;;;;;;;;;17.60;99.90;;;;;;4989917;28;20008;-76
2022/09/13 00:53:23;;;;;;;;;;;17.60;99.90;;;;;;5005559;28;20662;-77
2022/09/13 00:55:53;;;;;;;;;;;17.60;99.90;;;;;;4990146;28;20507;-78
2022/09/13 00:58:32;;;;;;;;;;;17.60;99.90;;;;;;5000464;28;19973;-76
2022/09/13 01:00:58;;;;;;;;;;;17.60;99.90;;;;;;4990487;28;19926;-77
2022/09/13 01:03:26;;;;;;;;;;;17.60;99.90;;;;;;5002445;28;19922;-76
2022/09/13 01:05:55;;;;;;;;;;;17.60;99.90;;;;;;5002815;28;19925;-78
2022/09/13 01:08:21;;;;;;;;;;;17.60;99.90;;;;;;5003627;28;20016;-75
2022/09/13 01:10:49;;;;;;;;;;;17.60;99.90;;;;;;4973977;28;19926;-77
2022/09/13 01:13:18;;;;;;;;;;;17.60;99.90;;;;;;4989992;28;20008;-81
2022/09/13 01:15:44;;;;;;;;;;;17.60;99.90;;;;;;4990198;28;20044;-77
2022/09/13 01:18:11;;;;;;;;;;;17.60;99.90;;;;;;4976120;28;19930;-76
2022/09/13 01:20:44;;;;;;;;;;;17.60;99.90;;;;;;4969738;28;19932;-77
2022/09/13 01:23:22;;;;;;;;;;;17.60;99.90;;;;;;4987032;28;20104;-78
2022/09/13 01:25:51;;;;;;;;;;;17.60;99.90;;;;;;4982710;28;19926;-77
2022/09/13 01:28:32;;;;;;;;;;;17.60;99.90;;;;;;4988058;28;19926;-77
2022/09/13 01:31:07;;;;;;;;;;;17.60;99.90;;;;;;4988320;28;19925;-77
2022/09/13 01:33:42;;;;;;;;;;;17.50;99.90;;;;;;4995270;28;19929;-76
2022/09/13 01:36:13;;;;;;;;;;;17.60;99.90;;;;;;4972788;28;19949;-77
2022/09/13 01:38:50;;;;;;;;;;;17.50;99.90;;;;;;4980505;28;20394;-78
2022/09/13 01:41:31;;;;;;;;;;;17.50;99.90;;;;;;4972828;28;20052;-77
2022/09/13 01:44:04;;;;;;;;;;;17.50;99.90;;;;;;4989332;28;19933;-75
2022/09/13 01:46:50;;;;;;;;;;;17.50;99.90;;;;;;4984961;28;19932;-77
2022/09/13 01:49:24;;;;;;;;;;;17.50;99.90;;;;;;4987768;28;20523;-77
2022/09/13 01:51:50;;;;;;;;;;;17.50;99.90;;;;;;4988551;28;20023;-77
2022/09/13 01:54:35;;;;;;;;;;;17.50;99.90;;;;;;4973353;28;19930;-78
2022/09/13 01:57:07;;;;;;;;;;;17.50;99.90;;;;;;4988499;28;19925;-77
2022/09/13 01:59:49;;;;;;;;;;;17.50;99.90;;;;;;4988683;28;19930;-77
2022/09/13 02:02:20;;;;;;;;;;;17.50;99.90;;;;;;4970797;28;19932;-78
2022/09/13 02:04:49;;;;;;;;;;;17.50;99.90;;;;;;4987943;28;19940;-77
2022/09/13 02:07:23;;;;;;;;;;;17.50;99.90;;;;;;5003298;23;20051;-78
2022/09/13 02:09:55;;;;;;;;;;;17.50;99.90;;;;;;4957195;28;19976;-78
2022/09/13 02:12:25;;;;;;;;;;;17.50;99.90;;;;;;4957590;28;19934;-77
2022/09/13 02:15:09;;;;;;;;;;;17.50;99.90;;;;;;4918327;28;19980;-78
2022/09/13 02:17:41;;;;;;;;;;;17.50;99.90;;;;;;4942497;28;19929;-78
2022/09/13 02:20:14;;;;;;;;;;;17.50;99.90;;;;;;4958281;28;19934;-77
2022/09/13 02:22:43;;;;;;;;;;;17.50;99.90;;;;;;4944662;28;20409;-77
2022/09/13 02:25:12;;;;;;;;;;;17.50;99.90;;;;;;4945128;28;19934;-77
2022/09/13 02:27:40;;;;;;;;;;;17.50;99.90;;;;;;4919948;28;20009;-77
2022/09/13 02:30:07;;;;;;;;;;;17.60;99.90;;;;;;4923162;28;20002;-77
2022/09/13 02:32:45;;;;;;;;;;;17.60;99.90;;;;;;4954045;28;19973;-78
2022/09/13 02:35:12;;;;;;;;;;;17.60;99.90;;;;;;4919257;29;20048;-77
2022/09/13 02:37:39;;;;;;;;;;;17.60;99.90;;;;;;4936238;28;19942;-77
2022/09/13 02:40:13;;;;;;;;;;;17.60;99.90;;;;;;4919423;29;19965;-78
2022/09/13 02:42:40;;;;;;;;;;;17.60;99.90;;;;;;4944266;28;19997;-78
2022/09/13 02:45:07;;;;;;;;;;;17.60;99.90;;;;;;4958787;28;19926;-79
2022/09/13 02:47:42;;;;;;;;;;;17.60;99.90;;;;;;4943721;28;19961;-78
2022/09/13 02:50:20;;;;;;;;;;;17.70;99.90;;;;;;4931896;28;19930;-80
2022/09/13 02:52:49;;;;;;;;;;;17.70;99.90;;;;;;4939649;28;19927;-78
2022/09/13 02:55:20;;;;;;;;;;;17.70;99.90;;;;;;4929710;28;19970;-77
2022/09/13 02:57:46;;;;;;;;;;;17.70;99.90;;;;;;4940203;28;20378;-77
2022/09/13 03:00:12;;;;;;;;;;;17.70;99.90;;;;;;4930428;28;19980;-77
2022/09/13 03:02:39;;;;;;;;;;;17.60;99.90;;;;;;4915217;28;19998;-77
2022/09/13 03:05:05;;;;;;;;;;;17.60;99.90;;;;;;4942993;28;20503;-76
2022/09/13 03:07:31;;;;;;;;;;;17.60;99.90;;;;;;4930895;28;19930;-76
2022/09/13 03:09:58;;;;;;;;;;;17.60;99.90;;;;;;4949150;28;20490;-77
2022/09/13 03:12:43;;;;;;;;;;;17.50;99.90;;;;;;4961362;28;19930;-75
2022/09/13 03:15:17;;;;;;;;;;;17.50;99.90;;;;;;4947837;28;20008;-79
2022/09/13 03:17:53;;;;;;;;;;;17.40;99.90;;;;;;4927297;28;19957;-78
2022/09/13 03:20:39;;;;;;;;;;;17.40;99.90;;;;;;4921653;28;19937;-80
2022/09/13 03:23:05;;;;;;;;;;;17.30;99.90;;;;;;4932057;28;19941;-78
2022/09/13 03:25:43;;;;;;;;;;;17.20;99.90;;;;;;4947359;28;19922;-78
2022/09/13 03:28:28;;;;;;;;;;;17.20;99.90;;;;;;4926444;28;19989;-78
2022/09/13 03:31:06;;;;;;;;;;;17.20;99.90;;;;;;4946464;28;20489;-77
2022/09/13 03:33:45;;;;;;;;;;;17.20;99.90;;;;;;4946874;28;19926;-79
2022/09/13 03:36:15;;;;;;;;;;;17.20;99.90;;;;;;4949511;28;19996;-79
2022/09/13 03:38:55;;;;;;;;;;;17.20;99.90;;;;;;4960590;28;19930;-78
2022/09/13 03:41:24;;;;;;;;;;;17.20;99.90;;;;;;4924919;28;20014;-78
2022/09/13 03:43:52;;;;;;;;;;;17.20;99.90;;;;;;4943482;28;20013;-78
2022/09/13 03:46:29;;;;;;;;;;;17.20;99.90;;;;;;4927998;28;20013;-78
2022/09/13 03:48:57;;;;;;;;;;;17.30;99.90;;;;;;4933890;28;19922;-78
2022/09/13 03:51:24;;;;;;;;;;;17.20;99.90;;;;;;4926215;28;19936;-78
2022/09/13 03:53:55;;;;;;;;;;;17.30;99.90;;;;;;4927081;28;19933;-78
2022/09/13 03:56:21;;;;;;;;;;;17.30;99.90;;;;;;4924271;28;19949;-78
2022/09/13 03:58:49;;;;;;;;;;;17.30;99.90;;;;;;4931937;28;19922;-78
2022/09/13 04:01:20;;;;;;;;;;;17.30;99.90;;;;;;4949086;28;19934;-79
2022/09/13 04:03:46;;;;;;;;;;;17.30;99.90;;;;;;4939717;28;19931;-79
2022/09/13 04:06:12;;;;;;;;;;;17.30;99.90;;;;;;4915466;28;19936;-78
2022/09/13 04:08:38;;;;;;;;;;;17.30;99.90;;;;;;4934054;28;20025;-78
2022/09/13 04:11:04;;;;;;;;;;;17.30;99.90;;;;;;4974205;28;19930;-80
2022/09/13 04:13:30;;;;;;;;;;;17.30;99.90;;;;;;4984468;28;19926;-79
2022/09/13 04:16:01;;;;;;;;;;;17.30;99.90;;;;;;4955101;28;20066;-79
2022/09/13 04:18:27;;;;;;;;;;;17.30;99.90;;;;;;4977346;28;20573;-80
2022/09/13 04:20:57;;;;;;;;;;;17.30;99.90;;;;;;4954124;28;19973;-79
2022/09/13 04:23:23;;;;;;;;;;;17.20;99.90;;;;;;4992572;28;19934;-79
2022/09/13 04:25:50;;;;;;;;;;;17.30;99.90;;;;;;4987615;28;20360;-78
2022/09/13 04:28:17;;;;;;;;;;;17.30;99.90;;;;;;4964328;28;19937;-77
2022/09/13 04:30:46;;;;;;;;;;;17.30;99.90;;;;;;4979649;28;20028;-77
2022/09/13 04:33:12;;;;;;;;;;;17.30;99.90;;;;;;4969234;28;20248;-77
2022/09/13 04:35:38;;;;;;;;;;;17.30;99.90;;;;;;4981870;28;19933;-78
2022/09/13 04:38:04;;;;;;;;;;;17.30;99.90;;;;;;4966980;28;19929;-79
2022/09/13 04:40:30;;;;;;;;;;;17.30;99.90;;;;;;4982224;28;20013;-78
2022/09/13 04:42:56;;;;;;;;;;;17.30;99.90;;;;;;4947779;28;19980;-78
2022/09/13 04:45:22;;;;;;;;;;;17.30;99.90;;;;;;4966130;28;19934;-79
2022/09/13 04:47:52;;;;;;;;;;;17.30;99.90;;;;;;4978081;28;20396;-79
2022/09/13 04:50:19;;;;;;;;;;;17.30;99.90;;;;;;4965593;28;19926;-79
2022/09/13 04:52:45;;;;;;;;;;;17.30;99.90;;;;;;4959971;28;19927;-79
2022/09/13 04:55:11;;;;;;;;;;;17.30;99.90;;;;;;4962238;28;20018;-79
2022/09/13 04:57:37;;;;;;;;;;;17.30;99.90;;;;;;4946155;28;19941;-80
2022/09/13 05:00:03;;;;;;;;;;;17.30;99.90;;;;;;4967619;28;20483;-79
2022/09/13 05:02:29;;;;;;;;;;;17.40;99.90;;;;;;4966457;28;20393;-80
2022/09/13 05:04:55;;;;;;;;;;;17.30;99.90;;;;;;4949249;28;19926;-80
2022/09/13 05:07:21;;;;;;;;;;;17.30;99.90;;;;;;4951789;28;19925;-80
2022/09/13 05:09:47;;;;;;;;;;;17.30;99.90;;;;;;4968087;28;19964;-80
2022/09/13 05:12:14;;;;;;;;;;;17.30;99.90;;;;;;4964480;28;19968;-80
2022/09/13 05:14:40;;;;;;;;;;;17.30;99.90;;;;;;4984376;28;20028;-79
2022/09/13 05:17:06;;;;;;;;;;;17.30;99.90;;;;;;4963924;28;20016;-78
2022/09/13 05:19:32;;;;;;;;;;;17.30;99.90;;;;;;4966038;28;20324;-78
2022/09/13 05:22:00;;;;;;;;;;;17.20;99.90;;;;;;4950486;28;19926;-79
2022/09/13 05:24:26;;;;;;;;;;;17.20;99.90;;;;;;4967929;28;19930;-79
2022/09/13 05:26:52;;;;;;;;;;;17.20;99.90;;;;;;4947512;28;19922;-79
2022/09/13 05:29:18;;;;;;;;;;;17.10;99.90;;;;;;4983605;28;19965;-79
2022/09/13 05:31:44;;;;;;;;;;;17.10;99.90;;;;;;4953335;28;19934;-79
2022/09/13 05:34:13;;;;;;;;;;;17.10;99.90;;;;;;4985103;28;19934;-79
2022/09/13 05:36:40;;;;;;;;;;;17.10;99.90;;;;;;4969457;28;20029;-84
2022/09/13 05:39:06;;;;;;;;;;;17.10;99.90;;;;;;4997993;28;19981;-78
2022/09/13 05:41:32;;;;;;;;;;;17.00;99.90;;;;;;4968056;28;19938;-80
2022/09/13 05:43:58;;;;;;;;;;;17.00;99.90;;;;;;4984316;28;20396;-80
2022/09/13 05:46:24;;;;;;;;;;;17.00;99.90;;;;;;4966751;28;19929;-78
2022/09/13 05:48:50;;;;;;;;;;;17.00;99.90;;;;;;4980332;28;19926;-79
2022/09/13 05:51:17;;;;;;;;;;;17.00;99.90;;;;;;4981766;28;19942;-78
2022/09/13 05:53:50;;;;;;;;;;;17.00;99.90;;;;;;4978723;28;19930;-78
2022/09/13 05:56:20;;;;;;;;;;;16.90;99.90;;;;;;4978443;28;20024;-79
2022/09/13 05:58:47;;;;;;;;;;;17.00;99.90;;;;;;4958995;28;20069;-78
2022/09/13 06:01:14;;;;;;;;;;;16.90;99.90;;;;;;4960595;28;20332;-79
2022/09/13 06:03:39;;;;;;;;;;;17.00;99.90;;;;;;4960198;28;19964;-79
2022/09/13 06:06:06;;;;;;;;;;;17.10;99.90;;;;;;4961807;28;20444;-79
2022/09/13 06:08:33;;;;;;;;;;;17.00;99.90;;;;;;4977681;28;20636;-79
2022/09/13 06:11:00;;;;;;;;;;;17.00;99.90;;;;;;4963871;28;19934;-79
2022/09/13 06:13:27;;;;;;;;;;;17.10;99.90;;;;;;4976560;28;19930;-78
2022/09/13 06:15:53;;;;;;;;;;;17.10;99.90;;;;;;4963354;28;20404;-79
2022/09/13 06:18:21;;;;;;;;;;;17.10;99.90;;;;;;4976112;28;20584;-79
2022/09/13 06:20:50;;;;;;;;;;;17.10;99.90;;;;;;4962887;28;20013;-79
2022/09/13 06:23:16;;;;;;;;;;;17.10;99.90;;;;;;4959853;28;19968;-79
2022/09/13 06:25:42;;;;;;;;;;;17.10;99.90;;;;;;4977147;28;19961;-80
2022/09/13 06:28:08;;;;;;;;;;;17.20;99.90;;;;;;4959543;28;19933;-80
2022/09/13 06:30:34;;;;;;;;;;;17.20;99.90;;;;;;4978800;28;20273;-79
2022/09/13 06:33:00;;;;;;;;;;;17.20;99.90;;;;;;4960242;28;20436;-79
2022/09/13 06:35:26;;;;;;;;;;;17.20;99.90;;;;;;4960285;28;19933;-80
2022/09/13 06:37:58;;;;;;;;;;;17.20;99.90;;;;;;4964450;28;19926;-79
2022/09/13 06:40:24;;;;;;;;;;;17.30;99.90;;;;;;4983213;28;19978;-80
2022/09/13 06:42:50;;;;;;;;;;;17.30;99.90;;;;;;4977345;28;20009;-80
2022/09/13 06:45:17;;;;;;;;;;;17.30;99.90;;;;;;4944143;28;20009;-80
2022/09/13 06:47:42;;;;;;;;;;;17.30;99.90;;;;;;4975722;28;20016;-80
2022/09/13 06:50:08;;;;;;;;;;;17.40;99.90;;;;;;4963091;28;20004;-80
2022/09/13 06:52:34;;;;;;;;;;;17.40;99.90;;;;;;4959967;28;19930;-79
2022/09/13 06:55:00;;;;;;;;;;;17.40;99.90;;;;;;4984389;28;20408;-78
2022/09/13 06:57:29;;;;;;;;;;;17.40;99.90;;;;;;4976918;28;19922;-80
2022/09/13 06:59:55;;;;;;;;;;;17.50;99.90;;;;;;4979883;28;19929;-79
2022/09/13 07:02:20;;;;;;;;;;;17.50;99.90;;;;;;4975233;28;19944;-79
2022/09/13 07:04:46;;;;;;;;;;;17.60;99.90;;;;;;4977035;28;20036;-79
2022/09/13 07:07:12;;;;;;;;;;;17.60;99.90;;;;;;4972609;28;19981;-79
2022/09/13 07:09:37;;;;;;;;;;;17.70;99.90;;;;;;4963521;28;19926;-79
2022/09/13 07:12:04;;;;;;;;;;;17.80;99.90;;;;;;4959347;28;19945;-80
2022/09/13 07:14:30;;;;;;;;;;;17.70;99.90;;;;;;4961330;28;20292;-80
2022/09/13 07:16:56;;;;;;;;;;;17.80;99.90;;;;;;4965175;28;19926;-79
2022/09/13 07:19:25;;;;;;;;;;;17.90;99.90;;;;;;4976822;28;19933;-80
2022/09/13 07:21:51;;;;;;;;;;;17.90;99.90;;;;;;4974970;28;19926;-79
2022/09/13 07:24:17;;;;;;;;;;;18.10;99.90;;;;;;4961029;28;19980;-82
2022/09/13 07:26:43;;;;;;;;;;;18.40;99.90;;;;;;4979681;28;19925;-87
2022/09/13 07:29:11;;;;;;;;;;;18.00;99.90;;;;;;4984828;28;19938;-80
2022/09/13 07:31:37;;;;;;;;;;;18.00;99.90;;;;;;4963851;28;20604;-80
2022/09/13 07:34:05;;;;;;;;;;;18.00;99.90;;;;;;4979511;28;20373;-80
2022/09/13 07:36:33;;;;;;;;;;;17.90;99.90;;;;;;4977654;28;19926;-81
2022/09/13 07:38:59;;;;;;;;;;;17.90;99.90;;;;;;4960540;28;19936;-80
2022/09/13 07:41:25;;;;;;;;;;;18.00;99.90;;;;;;4961040;28;20566;-81
2022/09/13 07:43:51;;;;;;;;;;;18.20;99.90;;;;;;4964331;28;19969;-82
2022/09/13 07:46:18;;;;;;;;;;;18.30;99.90;;;;;;4943883;28;20007;-81
2022/09/13 07:48:45;;;;;;;;;;;18.40;99.90;;;;;;4965048;28;19926;-82
2022/09/13 07:51:15;;;;;;;;;;;18.60;99.90;;;;;;4961784;28;20435;-81
2022/09/13 07:53:42;;;;;;;;;;;18.90;99.90;;;;;;4966710;28;19948;-82
2022/09/13 07:56:08;;;;;;;;;;;;;;;;;;4981711;28;19938;-81
2022/09/13 07:58:35;;;;;;;;;;;19.20;99.90;;;;;;4959482;28;19930;-82
2022/09/13 08:01:06;;;;;;;;;;;19.50;99.90;;;;;;4965871;28;19932;-82
2022/09/13 08:03:36;;;;;;;;;;;19.40;99.90;;;;;;4978030;28;19945;-79
2022/09/13 08:06:03;;;;;;;;;;;19.10;99.90;;;;;;4957084;28;19934;-81
2022/09/13 08:08:28;;;;;;;;;;;19.20;99.90;;;;;;4981760;28;20588;-80
2022/09/13 08:10:54;;;;;;;;;;;19.20;99.90;;;;;;4965539;28;19937;-80
2022/09/13 08:13:20;;;;;;;;;;;19.20;99.90;;;;;;4978940;28;20045;-80
2022/09/13 08:15:47;;;;;;;;;;;19.40;99.90;;;;;;4948557;28;20025;-80
2022/09/13 08:18:13;;;;;;;;;;;19.90;99.90;;;;;;4976310;28;20691;-79
2022/09/13 08:20:38;;;;;;;;;;;20.30;99.90;;;;;;4981700;28;20012;-80
2022/09/13 08:23:05;;;;;;;;;;;20.70;99.90;;;;;;4950836;28;19930;-81
2022/09/13 08:25:35;;;;;;;;;;;21.20;99.90;;;;;;4955503;28;19987;-80
2022/09/13 08:28:01;;;;;;;;;;;21.00;99.90;;;;;;4964719;28;19933;-76
2022/09/13 08:30:32;;;;;;;;;;;21.00;99.90;;;;;;4961943;28;19925;-78
2022/09/13 08:33:01;;;;;;;;;;;20.90;99.90;;;;;;4963643;28;19941;-77
2022/09/13 08:35:27;;;;;;;;;;;20.60;99.90;;;;;;4978924;28;19993;-77
2022/09/13 08:37:53;;;;;;;;;;;20.40;99.90;;;;;;4960265;28;19929;-77
2022/09/13 08:40:24;;;;;;;;;;;20.30;99.90;;;;;;4983600;28;19925;-77
2022/09/13 08:42:56;;;;;;;;;;;20.20;99.90;;;;;;4960438;28;19991;-77
2022/09/13 08:45:22;;;;;;;;;;;19.90;99.90;;;;;;4978750;28;19925;-78
2022/09/13 08:47:53;;;;;;;;;;;19.90;99.90;;;;;;4979195;28;19940;-76
2022/09/13 08:50:25;;;;;;;;;;;19.90;99.90;;;;;;4970425;28;20465;-78
2022/09/13 08:52:57;;;;;;;;;;;19.90;99.90;;;;;;4979203;28;19930;-75
2022/09/13 08:55:46;;;;;;;;;;;19.90;99.90;;;;;;4984715;28;19988;-75
2022/09/13 08:58:15;;;;;;;;;;;19.90;99.90;;;;;;4971144;28;19977;-75
2022/09/13 09:00:45;;;;;;;;;;;20.00;99.90;;;;;;4980043;28;19930;-77
2022/09/13 09:03:29;;;;;;;;;;;19.80;99.90;;;;;;4964715;28;19930;-76
2022/09/13 09:05:55;;;;;;;;;;;19.50;99.90;;;;;;4969824;28;19932;-76
2022/09/13 09:08:32;;;;;;;;;;;19.40;99.90;;;;;;4965682;28;20024;-76
2022/09/13 09:11:02;;;;;;;;;;;19.50;99.90;;;;;;4982657;28;21100;-77
2022/09/13 09:13:46;;;;;;;;;;;19.70;99.90;;;;;;4963254;28;19981;-77
2022/09/13 09:16:18;;;;;;;;;;;20.00;99.90;;;;;;4998366;28;20020;-77
2022/09/13 09:18:44;;;;;;;;;;;20.20;99.90;;;;;;4975012;28;19974;-77
2022/09/13 09:21:17;;;;;;;;;;;20.40;99.90;;;;;;4947839;28;19926;-76
2022/09/13 09:23:53;;;;;;;;;;;20.50;99.90;;;;;;4985508;28;20016;-77
2022/09/13 09:26:25;;;;;;;;;;;20.50;99.90;;;;;;4966257;28;19922;-76
2022/09/13 09:29:04;;;;;;;;;;;20.50;99.90;;;;;;4966239;28;19992;-76
2022/09/13 09:31:31;;;;;;;;;;;20.40;99.90;;;;;;4962901;28;20024;-76
2022/09/13 09:34:00;;;;;;;;;;;20.30;99.90;;;;;;4969510;28;20037;-77
2022/09/13 09:36:39;;;;;;;;;;;20.10;99.90;;;;;;4978334;28;20033;-76
2022/09/13 09:39:09;;;;;;;;;;;20.00;99.90;;;;;;4963970;28;19925;-76
2022/09/13 09:41:37;;;;;;;;;;;20.00;99.90;;;;;;4977924;28;20357;-77
2022/09/13 09:44:02;;;;;;;;;;;19.90;99.90;;;;;;4954553;28;20614;-76
2022/09/13 09:46:33;;;;;;;;;;;19.60;99.90;;;;;;4979968;28;21395;-76
2022/09/13 09:50:07;;;;;;;;;;;19.80;99.90;;;;;;4964895;28;20155;-78
2022/09/13 09:51:50;;;;;;;;;;;20.00;99.90;;;;;;4977589;28;20416;-78
2022/09/13 09:54:16;;;;;;;;;;;20.30;99.90;;;;;;4966207;28;20452;-77
2022/09/13 09:56:51;;;;;;;;;;;20.20;99.90;;;;;;4969685;28;19926;-76
2022/09/13 09:59:31;;;;;;;;;;;20.30;99.90;;;;;;4984157;28;20297;-77
2022/09/13 10:01:58;;;;;;;;;;;20.50;99.90;;;;;;4981900;28;19926;-75
2022/09/13 10:04:25;;;;;;;;;;;20.40;99.90;;;;;;4966317;28;21088;-78
2022/09/13 10:07:08;;;;;;;;;;;20.20;99.90;;;;;;4990420;28;20020;-76
2022/09/13 10:09:36;;;;;;;;;;;19.90;99.90;;;;;;4980792;28;19999;-77
2022/09/13 10:12:03;;;;;;;;;;;19.60;99.90;;;;;;4978094;28;19948;-80
2022/09/13 10:14:36;;;;;;;;;;;19.70;99.90;;;;;;4977411;28;19926;-75
2022/09/13 10:17:05;;;;;;;;;;;19.80;99.90;;;;;;4974991;28;20290;-79
2022/09/13 10:19:32;;;;;;;;;;;19.90;99.90;;;;;;4974503;28;19948;-76
2022/09/13 10:22:02;;;;;;;;;;;20.20;99.90;;;;;;4959816;28;19926;-75
2022/09/13 10:24:29;;;;;;;;;;;20.30;99.90;;;;;;4965525;28;20566;-78
2022/09/13 10:26:55;;;;;;;;;;;20.50;99.90;;;;;;4973022;28;19926;-77
2022/09/13 10:29:22;;;;;;;;;;;20.40;99.90;;;;;;4964876;28;19944;-77
2022/09/13 10:31:52;;;;;;;;;;;20.10;99.90;;;;;;4969794;28;20563;-77
2022/09/13 10:34:29;;;;;;;;;;;19.80;99.90;;;;;;4974413;28;20388;-76
2022/09/13 10:36:55;;;;;;;;;;;19.60;99.90;;;;;;4966711;28;19930;-76
2022/09/13 10:39:22;;;;;;;;;;;19.70;99.90;;;;;;4982212;28;20474;-76
2022/09/13 10:41:53;;;;;;;;;;;19.70;99.90;;;;;;4984996;28;19976;-77
2022/09/13 10:44:21;;;;;;;;;;;20.00;99.90;;;;;;4963208;28;19926;-77
2022/09/13 10:46:49;;;;;;;;;;;20.00;99.90;;;;;;4968569;28;19929;-76
2022/09/13 10:49:36;;;;;;;;;;;19.80;99.90;;;;;;4981562;28;19941;-77
2022/09/13 10:52:22;;;;;;;;;;;19.70;99.90;;;;;;4982948;28;19926;-77
2022/09/13 10:54:54;;;;;;;;;;;20.00;99.90;;;;;;4979672;28;19936;-77
2022/09/13 10:57:30;;;;;;;;;;;20.20;99.90;;;;;;4971026;28;19930;-78
2022/09/13 10:59:56;;;;;;;;;;;;;;;;;;4972641;28;19932;-81
2022/09/13 11:02:41;;;;;;;;;;;20.70;99.90;;;;;;4968176;28;20016;-78
2022/09/13 11:05:18;;;;;;;;;;;20.80;99.90;;;;;;4964668;28;19926;-77
2022/09/13 11:07:59;;;;;;;;;;;20.60;99.90;;;;;;4964528;28;19933;-77
2022/09/13 11:10:43;;;;;;;;;;;20.40;99.90;;;;;;4967641;28;19925;-78
2022/09/13 11:13:18;;;;;;;;;;;20.40;99.90;;;;;;4984286;28;19957;-77
2022/09/13 11:16:03;;;;;;;;;;;20.50;99.90;;;;;;4978459;28;19940;-80
2022/09/13 11:18:33;;;;;;;;;;;20.60;99.90;;;;;;4977301;28;20029;-76
2022/09/13 11:20:59;;;;;;;;;;;20.70;99.90;;;;;;4976950;28;20508;-77
2022/09/13 11:23:41;;;;;;;;;;;20.80;99.90;;;;;;4980555;28;19926;-78
2022/09/13 11:26:26;;;;;;;;;;;21.00;99.90;;;;;;4964360;28;19926;-78
2022/09/13 11:29:10;;;;;;;;;;;20.80;99.90;;;;;;4961214;28;20719;-77
2022/09/13 11:31:55;;;;;;;;;;;20.80;99.90;;;;;;4966589;28;19930;-78
2022/09/13 11:34:41;;;;;;;;;;;20.70;99.90;;;;;;4972277;28;19941;-78
2022/09/13 11:37:28;;;;;;;;;;;20.40;99.90;;;;;;4980163;28;19929;-80
2022/09/13 11:40:00;;;;;;;;;;;20.30;99.90;;;;;;4978163;28;19930;-79
2022/09/13 11:42:35;;;;;;;;;;;20.20;99.90;;;;;;4964166;28;19930;-79
2022/09/13 11:45:11;;;;;;;;;;;20.10;99.90;;;;;;4983773;28;19933;-76
2022/09/13 11:47:56;;;;;;;;;;;20.30;99.90;;;;;;4978779;28;19930;-78
2022/09/13 11:50:25;;;;;;;;;;;;;;;;;;4979891;28;20025;-77
2022/09/13 11:53:09;;;;;;;;;;;20.60;99.90;;;;;;4957443;28;19926;-79
2022/09/13 11:55:38;;;;;;;;;;;20.60;99.90;;;;;;4959547;28;19930;-78
2022/09/13 11:58:05;;;;;;;;;;;20.60;99.90;;;;;;4973360;28;19930;-77
2022/09/13 12:00:33;;;;;;;;;;;20.60;99.90;;;;;;4959177;28;20455;-78
2022/09/13 12:03:05;;;;;;;;;;;20.70;99.90;;;;;;4968692;28;19929;-77
2022/09/13 12:05:33;;;;;;;;;;;20.80;99.90;;;;;;4978327;28;19932;-78
2022/09/13 12:08:04;;;;;;;;;;;20.80;99.90;;;;;;4961101;28;19922;-76
2022/09/13 12:10:37;;;;;;;;;;;20.60;99.90;;;;;;4979093;28;20370;-80
2022/09/13 12:13:03;;;;;;;;;;;20.60;99.90;;;;;;4999792;28;19937;-79
2022/09/13 12:15:40;;;;;;;;;;;20.40;99.90;;;;;;4961019;28;19941;-80
2022/09/13 12:18:19;;;;;;;;;;;20.50;99.90;;;;;;4962184;28;20046;-79
2022/09/13 12:20:57;;;;;;;;;;;20.50;99.90;;;;;;4959813;28;19929;-80
2022/09/13 12:23:27;;;;;;;;;;;20.50;99.90;;;;;;4976381;28;19930;-78
2022/09/13 12:26:01;;;;;;;;;;;20.40;99.90;;;;;;4969131;28;20389;-79
2022/09/13 12:28:31;;;;;;;;;;;20.20;99.90;;;;;;4984817;28;20469;-79
2022/09/13 12:31:09;;;;;;;;;;;20.10;99.90;;;;;;4967999;28;19953;-79
2022/09/13 12:33:41;;;;;;;;;;;20.10;99.90;;;;;;4980964;28;20581;-78
2022/09/13 12:36:19;;;;;;;;;;;20.10;99.90;;;;;;4946226;28;20491;-79
2022/09/13 12:38:57;;;;;;;;;;;20.10;99.90;;;;;;4966788;28;19930;-80
2022/09/13 12:41:25;;;;;;;;;;;20.10;99.90;;;;;;4982021;28;19934;-78
2022/09/13 12:44:10;;;;;;;;;;;20.20;99.90;;;;;;4961325;28;20372;-78
2022/09/13 12:46:55;;;;;;;;;;;20.10;99.90;;;;;;4983016;28;19949;-77
2022/09/13 12:49:27;;;;;;;;;;;20.00;99.90;;;;;;4962562;28;19985;-78
2022/09/13 12:51:52;;;;;;;;;;;19.80;99.90;;;;;;4987238;28;19930;-79
2022/09/13 12:54:35;;;;;;;;;;;19.70;99.90;;;;;;4978359;28;19943;-78
2022/09/13 12:57:19;;;;;;;;;;;19.60;99.90;;;;;;4981214;28;19973;-79
2022/09/13 13:00:01;;;;;;;;;;;19.60;99.90;;;;;;4983614;28;19976;-78
2022/09/13 13:02:37;;;;;;;;;;;19.60;99.90;;;;;;4968249;28;20493;-79
2022/09/13 13:05:24;;;;;;;;;;;19.60;99.90;;;;;;4981457;28;19925;-79
2022/09/13 13:08:01;;;;;;;;;;;19.60;99.90;;;;;;4978926;28;19934;-79
2022/09/13 13:10:34;;;;;;;;;;;19.70;99.90;;;;;;4962141;28;19954;-79
2022/09/13 13:13:14;;;;;;;;;;;19.50;99.90;;;;;;4986608;28;19952;-79
2022/09/13 13:15:42;;;;;;;;;;;19.50;99.90;;;;;;4964912;28;19938;-78
2022/09/13 13:18:22;;;;;;;;;;;19.40;99.90;;;;;;4964124;28;19929;-79
2022/09/13 13:20:50;;;;;;;;;;;19.40;99.90;;;;;;4961475;28;19938;-77
2022/09/13 13:23:27;;;;;;;;;;;19.40;99.90;;;;;;4964731;28;20091;-81
2022/09/13 13:25:55;;;;;;;;;;;19.40;99.90;;;;;;4996807;28;19930;-76
2022/09/13 13:28:49;;;;;;;;;;;19.50;99.90;;;;;;4979515;28;20416;-76
2022/09/13 13:31:26;;;;;;;;;;;19.50;99.90;;;;;;4996461;28;19933;-77
2022/09/13 13:33:57;;;;;;;;;;;19.50;99.90;;;;;;4974983;28;19925;-79
2022/09/13 13:36:36;;;;;;;;;;;19.50;99.90;;;;;;4961523;28;19972;-79
2022/09/13 13:39:02;;;;;;;;;;;19.40;99.90;;;;;;4962401;28;20416;-78
2022/09/13 13:41:37;;;;;;;;;;;19.30;99.90;;;;;;4946418;28;19934;-78
2022/09/13 13:44:16;;;;;;;;;;;19.40;99.90;;;;;;4959573;28;20463;-79
2022/09/13 13:46:42;;;;;;;;;;;19.30;99.90;;;;;;4962762;28;19973;-78
2022/09/13 13:49:27;;;;;;;;;;;19.20;99.90;;;;;;4962595;28;19989;-77
2022/09/13 13:52:20;;;;;;;;;;;19.20;99.90;;;;;;4978048;28;20009;-79
2022/09/13 13:55:21;;;;;;;;;;;19.20;99.90;;;;;;4956020;28;20058;-79
2022/09/13 13:58:01;;;;;;;;;;;19.20;99.90;;;;;;4972467;28;20772;-78
2022/09/13 14:00:30;;;;;;;;;;;19.20;99.90;;;;;;4977009;28;19972;-78
2022/09/13 14:02:55;;;;;;;;;;;19.20;99.90;;;;;;4973851;28;20457;-78
2022/09/13 14:05:40;;;;;;;;;;;19.20;99.90;;;;;;4960122;28;19934;-78
2022/09/13 14:08:09;;;;;;;;;;;19.40;99.90;;;;;;4964466;28;19930;-80
2022/09/13 14:10:57;;;;;;;;;;;19.40;99.90;;;;;;4995603;28;19930;-79
2022/09/13 14:13:23;;;;;;;;;;;19.40;99.90;;;;;;4972608;28;19930;-77
2022/09/13 14:15:50;;;;;;;;;;;19.20;99.90;;;;;;4975405;28;19987;-77
2022/09/13 14:18:16;;;;;;;;;;;19.30;99.90;;;;;;4971773;28;20424;-79
2022/09/13 14:21:02;;;;;;;;;;;19.30;99.90;;;;;;4979102;28;19940;-79
2022/09/13 14:23:28;;;;;;;;;;;19.40;99.90;;;;;;4963028;28;19934;-81
2022/09/13 14:25:56;;;;;;;;;;;19.20;99.90;;;;;;4960267;28;20050;-77
2022/09/13 14:28:22;;;;;;;;;;;19.10;99.90;;;;;;4976091;28;19930;-79
2022/09/13 14:30:52;;;;;;;;;;;19.10;99.90;;;;;;4975367;28;20408;-76
2022/09/13 14:33:30;;;;;;;;;;;19.00;99.90;;;;;;4976089;28;19937;-81
2022/09/13 14:35:57;;;;;;;;;;;19.00;99.90;;;;;;4969421;28;19978;-78
2022/09/13 14:38:32;;;;;;;;;;;18.90;99.90;;;;;;4961991;28;20791;-79
2022/09/13 14:41:00;;;;;;;;;;;18.90;99.90;;;;;;4979819;28;20309;-81